Overseas Long Beach — WAAT — position and weather

sailwx.info

Track history (hours):
 
Tides and Currents Weather Stations Pressure Air Temp Water Temp Dewpoint Dewpoint Depression Visibility Wind Speed Wind Dir Waves Ship Positions

Overseas Long Beach

Owner: ASC Leasing II, Inc., Philadelphia, PA. More information available from US FCC via Universal Licensing System and Coast Guard Vessel Documentation Center.

Last reported at 2015-Aug-28 11:25 UTC. Time now 2015-Aug-29 23:38 UTC.
Position N 26°31' W 079°42'.

Length 181 m; draft 11 m.

Type: Tanker. MMSI: 367703000.

Date/timePositionNaut miles runAvg speedWind from/ knotsBaromVisibWave heightAir tempDewpointWater temp
2015-Aug-28 11:25N 26°31' W 079°42'1618.1
2015-Aug-28 10:33N 26°15' W 079°42'1817.8
2015-Aug-28 09:33N 25°58' W 079°45'1717.2
2015-Aug-28 08:33N 25°42' W 079°53'1817.6
2015-Aug-28 07:33N 25°25' W 079°58'40112.7
2015-Aug-27 00:00N 27°00' W 087°12'22612.8 350 / 101013.010.8 0.527.826.3
2015-Aug-26 06:19N 29°55' W 089°55'810.0
2015-Aug-26 05:32N 29°56' W 090°04'14 9.8
2015-Aug-26 04:06N 29°56' W 090°20'  
2015-Aug-23 20:13N 29°57' W 090°09'5 6.1
2015-Aug-23 19:27N 29°57' W 090°03'8 7.6
2015-Aug-23 18:21N 29°52' W 089°56'6 7.0
2015-Aug-23 17:31N 29°48' W 090°01'  
Track history (hours):
 
Tides and Currents Weather Stations Pressure Air Temp Water Temp Dewpoint Dewpoint Depression Visibility Wind Speed Wind Dir Waves Ship Positions

Overseas Long Beach

Owner: ASC Leasing II, Inc., Philadelphia, PA. More information available from US FCC via Universal Licensing System and Coast Guard Vessel Documentation Center.

Last reported at 2015-Aug-28 11:25 UTC. Time now 2015-Aug-29 23:38 UTC.
Position N 26°31' W 079°42'.

Length 181 m; draft 11 m.

Type: Tanker. MMSI: 367703000.

Date/timePositionNaut miles runAvg speedWind from/ knotsBaromVisibWave heightAir tempDewpointWater temp
2015-Aug-28 11:25N 26°31' W 079°42'1618.1
2015-Aug-28 10:33N 26°15' W 079°42'1817.8
2015-Aug-28 09:33N 25°58' W 079°45'1717.2
2015-Aug-28 08:33N 25°42' W 079°53'1817.6
2015-Aug-28 07:33N 25°25' W 079°58'40112.7
2015-Aug-27 00:00N 27°00' W 087°12'22612.8 350 / 101013.010.8 0.527.826.3
2015-Aug-26 06:19N 29°55' W 089°55'810.0
2015-Aug-26 05:32N 29°56' W 090°04'14 9.8
2015-Aug-26 04:06N 29°56' W 090°20'  
2015-Aug-23 20:13N 29°57' W 090°09'5 6.1
2015-Aug-23 19:27N 29°57' W 090°03'8 7.6
2015-Aug-23 18:21N 29°52' W 089°56'6 7.0
2015-Aug-23 17:31N 29°48' W 090°01'  

Dump ship's entire track history